sensor_id;sensor_type;location;lat;lon;timestamp;P1;durP1;ratioP1;P2;durP2;ratioP2
73452;SDS011;61687;56.232;43.854;2022-09-09T00:00:30;7.45;;;4.70;;
73452;SDS011;61687;56.232;43.854;2022-09-09T00:03:18;7.03;;;5.35;;
73452;SDS011;61687;56.232;43.854;2022-09-09T00:08:45;6.80;;;5.47;;
73452;SDS011;61687;56.232;43.854;2022-09-09T00:14:56;7.60;;;5.00;;
73452;SDS011;61687;56.232;43.854;2022-09-09T00:17:38;6.50;;;4.93;;
73452;SDS011;61687;56.232;43.854;2022-09-09T00:20:37;7.40;;;5.47;;
73452;SDS011;61687;56.232;43.854;2022-09-09T00:23:27;9.13;;;5.53;;
73452;SDS011;61687;56.232;43.854;2022-09-09T00:28:55;6.45;;;4.78;;
73452;SDS011;61687;56.232;43.854;2022-09-09T00:31:30;7.15;;;5.30;;
73452;SDS011;61687;56.232;43.854;2022-09-09T00:36:35;7.27;;;5.17;;
73452;SDS011;61687;56.232;43.854;2022-09-09T00:39:03;7.78;;;5.57;;
73452;SDS011;61687;56.232;43.854;2022-09-09T00:46:53;9.75;;;5.75;;
73452;SDS011;61687;56.232;43.854;2022-09-09T00:57:53;7.78;;;5.22;;
73452;SDS011;61687;56.232;43.854;2022-09-09T01:00:22;8.18;;;5.78;;
73452;SDS011;61687;56.232;43.854;2022-09-09T01:05:49;7.40;;;5.38;;
73452;SDS011;61687;56.232;43.854;2022-09-09T01:11:10;8.05;;;5.25;;
73452;SDS011;61687;56.232;43.854;2022-09-09T01:13:46;8.80;;;4.95;;
73452;SDS011;61687;56.232;43.854;2022-09-09T01:16:18;7.45;;;4.30;;
73452;SDS011;61687;56.232;43.854;2022-09-09T01:18:45;8.82;;;5.22;;
73452;SDS011;61687;56.232;43.854;2022-09-09T01:27:16;8.10;;;5.47;;
73452;SDS011;61687;56.232;43.854;2022-09-09T01:29:45;8.43;;;5.03;;
73452;SDS011;61687;56.232;43.854;2022-09-09T01:35:10;7.88;;;5.43;;
73452;SDS011;61687;56.232;43.854;2022-09-09T01:37:56;6.75;;;4.70;;
73452;SDS011;61687;56.232;43.854;2022-09-09T01:40:23;6.85;;;5.40;;
73452;SDS011;61687;56.232;43.854;2022-09-09T01:42:51;6.60;;;4.43;;
73452;SDS011;61687;56.232;43.854;2022-09-09T01:45:18;7.03;;;5.00;;
73452;SDS011;61687;56.232;43.854;2022-09-09T01:47:45;8.52;;;4.95;;
73452;SDS011;61687;56.232;43.854;2022-09-09T01:50:24;7.20;;;4.85;;
73452;SDS011;61687;56.232;43.854;2022-09-09T01:52:52;7.10;;;4.93;;
73452;SDS011;61687;56.232;43.854;2022-09-09T01:55:30;7.10;;;4.35;;
73452;SDS011;61687;56.232;43.854;2022-09-09T02:00:57;7.40;;;4.32;;
73452;SDS011;61687;56.232;43.854;2022-09-09T02:03:49;8.45;;;5.53;;
73452;SDS011;61687;56.232;43.854;2022-09-09T02:06:25;7.43;;;4.07;;
73452;SDS011;61687;56.232;43.854;2022-09-09T02:09:09;6.65;;;4.75;;
73452;SDS011;61687;56.232;43.854;2022-09-09T02:11:39;7.88;;;5.60;;
73452;SDS011;61687;56.232;43.854;2022-09-09T02:14:24;7.63;;;4.10;;
73452;SDS011;61687;56.232;43.854;2022-09-09T02:16:57;7.10;;;4.97;;
73452;SDS011;61687;56.232;43.854;2022-09-09T02:19:48;6.90;;;4.37;;
73452;SDS011;61687;56.232;43.854;2022-09-09T02:22:30;6.82;;;4.32;;
73452;SDS011;61687;56.232;43.854;2022-09-09T02:25:01;7.57;;;4.90;;
73452;SDS011;61687;56.232;43.854;2022-09-09T02:27:30;6.82;;;4.70;;
73452;SDS011;61687;56.232;43.854;2022-09-09T02:29:57;7.18;;;4.80;;
73452;SDS011;61687;56.232;43.854;2022-09-09T02:32:37;7.43;;;4.80;;
73452;SDS011;61687;56.232;43.854;2022-09-09T02:35:09;8.30;;;4.85;;
73452;SDS011;61687;56.232;43.854;2022-09-09T02:37:40;6.65;;;5.05;;
73452;SDS011;61687;56.232;43.854;2022-09-09T02:40:09;9.93;;;5.53;;
73452;SDS011;61687;56.232;43.854;2022-09-09T02:42:47;6.80;;;5.15;;
73452;SDS011;61687;56.232;43.854;2022-09-09T02:45:17;6.40;;;4.60;;
73452;SDS011;61687;56.232;43.854;2022-09-09T02:50:28;11.00;;;5.45;;
73452;SDS011;61687;56.232;43.854;2022-09-09T02:53:28;5.93;;;4.25;;
73452;SDS011;61687;56.232;43.854;2022-09-09T02:56:04;8.40;;;5.63;;
73452;SDS011;61687;56.232;43.854;2022-09-09T02:58:37;11.60;;;5.23;;
73452;SDS011;61687;56.232;43.854;2022-09-09T03:01:05;7.75;;;5.38;;
73452;SDS011;61687;56.232;43.854;2022-09-09T03:03:31;8.27;;;6.07;;
73452;SDS011;61687;56.232;43.854;2022-09-09T03:06:01;8.52;;;5.38;;
73452;SDS011;61687;56.232;43.854;2022-09-09T03:08:27;8.43;;;6.00;;
73452;SDS011;61687;56.232;43.854;2022-09-09T03:10:54;7.93;;;4.90;;
73452;SDS011;61687;56.232;43.854;2022-09-09T03:13:23;7.13;;;4.80;;
73452;SDS011;61687;56.232;43.854;2022-09-09T03:15:49;9.02;;;5.68;;
73452;SDS011;61687;56.232;43.854;2022-09-09T03:18:18;6.70;;;4.60;;
73452;SDS011;61687;56.232;43.854;2022-09-09T03:20:48;9.73;;;5.68;;
73452;SDS011;61687;56.232;43.854;2022-09-09T03:23:14;8.83;;;5.17;;
73452;SDS011;61687;56.232;43.854;2022-09-09T03:25:46;7.40;;;4.68;;
73452;SDS011;61687;56.232;43.854;2022-09-09T03:28:15;8.82;;;4.53;;
73452;SDS011;61687;56.232;43.854;2022-09-09T03:30:41;9.95;;;4.97;;
73452;SDS011;61687;56.232;43.854;2022-09-09T03:33:08;9.07;;;5.03;;
73452;SDS011;61687;56.232;43.854;2022-09-09T03:35:34;8.97;;;4.80;;
73452;SDS011;61687;56.232;43.854;2022-09-09T03:38:00;6.38;;;4.75;;
73452;SDS011;61687;56.232;43.854;2022-09-09T03:40:29;9.20;;;5.32;;
73452;SDS011;61687;56.232;43.854;2022-09-09T03:42:56;6.90;;;5.03;;
73452;SDS011;61687;56.232;43.854;2022-09-09T03:45:24;6.22;;;4.50;;
73452;SDS011;61687;56.232;43.854;2022-09-09T03:47:50;7.30;;;4.90;;
73452;SDS011;61687;56.232;43.854;2022-09-09T03:50:16;8.85;;;5.40;;
73452;SDS011;61687;56.232;43.854;2022-09-09T03:52:45;6.75;;;4.40;;
73452;SDS011;61687;56.232;43.854;2022-09-09T03:55:19;9.00;;;4.90;;
73452;SDS011;61687;56.232;43.854;2022-09-09T03:57:45;8.77;;;5.00;;
73452;SDS011;61687;56.232;43.854;2022-09-09T04:00:12;6.83;;;5.43;;
73452;SDS011;61687;56.232;43.854;2022-09-09T04:02:49;7.45;;;4.88;;
73452;SDS011;61687;56.232;43.854;2022-09-09T04:05:16;7.18;;;4.65;;
73452;SDS011;61687;56.232;43.854;2022-09-09T04:07:44;7.00;;;5.15;;
73452;SDS011;61687;56.232;43.854;2022-09-09T04:10:11;8.13;;;4.43;;
73452;SDS011;61687;56.232;43.854;2022-09-09T04:12:39;10.02;;;4.90;;
73452;SDS011;61687;56.232;43.854;2022-09-09T04:15:05;8.52;;;4.35;;
73452;SDS011;61687;56.232;43.854;2022-09-09T04:17:33;6.85;;;5.20;;
73452;SDS011;61687;56.232;43.854;2022-09-09T04:19:59;7.65;;;4.82;;
73452;SDS011;61687;56.232;43.854;2022-09-09T04:22:26;8.68;;;4.68;;
73452;SDS011;61687;56.232;43.854;2022-09-09T04:24:52;8.43;;;5.43;;
73452;SDS011;61687;56.232;43.854;2022-09-09T04:27:19;10.35;;;5.05;;
73452;SDS011;61687;56.232;43.854;2022-09-09T04:29:45;8.52;;;4.82;;
73452;SDS011;61687;56.232;43.854;2022-09-09T04:32:12;8.02;;;4.80;;
73452;SDS011;61687;56.232;43.854;2022-09-09T04:34:38;7.47;;;4.80;;
73452;SDS011;61687;56.232;43.854;2022-09-09T04:37:08;8.63;;;4.25;;
73452;SDS011;61687;56.232;43.854;2022-09-09T04:39:34;9.40;;;5.22;;
73452;SDS011;61687;56.232;43.854;2022-09-09T04:42:00;10.07;;;4.47;;
73452;SDS011;61687;56.232;43.854;2022-09-09T04:44:26;7.63;;;4.30;;
73452;SDS011;61687;56.232;43.854;2022-09-09T04:46:52;9.75;;;4.45;;
73452;SDS011;61687;56.232;43.854;2022-09-09T04:49:18;11.55;;;4.35;;
73452;SDS011;61687;56.232;43.854;2022-09-09T04:51:44;9.27;;;3.83;;
73452;SDS011;61687;56.232;43.854;2022-09-09T04:54:11;6.10;;;3.47;;
73452;SDS011;61687;56.232;43.854;2022-09-09T04:56:39;6.80;;;3.90;;
73452;SDS011;61687;56.232;43.854;2022-09-09T04:59:07;6.70;;;4.38;;
73452;SDS011;61687;56.232;43.854;2022-09-09T05:01:43;7.28;;;4.28;;
73452;SDS011;61687;56.232;43.854;2022-09-09T05:04:10;8.30;;;4.20;;
73452;SDS011;61687;56.232;43.854;2022-09-09T05:06:36;7.90;;;3.70;;
73452;SDS011;61687;56.232;43.854;2022-09-09T05:09:03;5.47;;;3.70;;
73452;SDS011;61687;56.232;43.854;2022-09-09T05:11:30;6.68;;;3.95;;
73452;SDS011;61687;56.232;43.854;2022-09-09T05:14:23;5.63;;;3.38;;
73452;SDS011;61687;56.232;43.854;2022-09-09T05:16:49;7.22;;;4.10;;
73452;SDS011;61687;56.232;43.854;2022-09-09T05:19:16;4.93;;;3.37;;
73452;SDS011;61687;56.232;43.854;2022-09-09T05:21:47;6.38;;;3.08;;
73452;SDS011;61687;56.232;43.854;2022-09-09T05:24:16;7.00;;;3.80;;
73452;SDS011;61687;56.232;43.854;2022-09-09T05:26:44;7.15;;;3.60;;
73452;SDS011;61687;56.232;43.854;2022-09-09T05:29:10;7.07;;;3.70;;
73452;SDS011;61687;56.232;43.854;2022-09-09T05:31:36;6.43;;;3.50;;
73452;SDS011;61687;56.232;43.854;2022-09-09T05:34:07;4.72;;;3.03;;
73452;SDS011;61687;56.232;43.854;2022-09-09T05:36:34;12.43;;;3.40;;
73452;SDS011;61687;56.232;43.854;2022-09-09T05:39:00;6.65;;;3.00;;
73452;SDS011;61687;56.232;43.854;2022-09-09T05:41:28;4.65;;;2.85;;
73452;SDS011;61687;56.232;43.854;2022-09-09T05:43:56;5.83;;;2.80;;
73452;SDS011;61687;56.232;43.854;2022-09-09T05:46:24;5.68;;;2.67;;
73452;SDS011;61687;56.232;43.854;2022-09-09T05:48:52;4.72;;;3.08;;
73452;SDS011;61687;56.232;43.854;2022-09-09T05:51:25;7.13;;;2.97;;
73452;SDS011;61687;56.232;43.854;2022-09-09T05:53:56;7.13;;;3.45;;
73452;SDS011;61687;56.232;43.854;2022-09-09T05:56:28;5.43;;;3.07;;
73452;SDS011;61687;56.232;43.854;2022-09-09T05:58:56;6.50;;;2.97;;
73452;SDS011;61687;56.232;43.854;2022-09-09T06:01:26;6.65;;;3.25;;
73452;SDS011;61687;56.232;43.854;2022-09-09T06:03:58;5.32;;;2.85;;
73452;SDS011;61687;56.232;43.854;2022-09-09T06:06:25;4.97;;;2.80;;
73452;SDS011;61687;56.232;43.854;2022-09-09T06:08:55;4.23;;;2.70;;
73452;SDS011;61687;56.232;43.854;2022-09-09T06:11:32;4.88;;;2.88;;
73452;SDS011;61687;56.232;43.854;2022-09-09T06:14:02;8.15;;;3.35;;
73452;SDS011;61687;56.232;43.854;2022-09-09T06:16:30;6.07;;;3.13;;
73452;SDS011;61687;56.232;43.854;2022-09-09T06:19:00;3.92;;;2.30;;
73452;SDS011;61687;56.232;43.854;2022-09-09T06:21:30;3.73;;;2.10;;
73452;SDS011;61687;56.232;43.854;2022-09-09T06:23:59;3.67;;;2.42;;
73452;SDS011;61687;56.232;43.854;2022-09-09T06:26:27;6.90;;;3.22;;
73452;SDS011;61687;56.232;43.854;2022-09-09T06:28:56;5.15;;;3.13;;
73452;SDS011;61687;56.232;43.854;2022-09-09T06:31:24;8.82;;;3.22;;
73452;SDS011;61687;56.232;43.854;2022-09-09T06:33:53;3.83;;;2.23;;
73452;SDS011;61687;56.232;43.854;2022-09-09T06:36:32;6.47;;;2.97;;
73452;SDS011;61687;56.232;43.854;2022-09-09T06:39:00;5.75;;;3.13;;
73452;SDS011;61687;56.232;43.854;2022-09-09T06:41:28;6.15;;;3.00;;
73452;SDS011;61687;56.232;43.854;2022-09-09T06:43:56;8.52;;;3.10;;
73452;SDS011;61687;56.232;43.854;2022-09-09T06:46:30;3.37;;;2.30;;
73452;SDS011;61687;56.232;43.854;2022-09-09T06:48:59;3.38;;;1.77;;
73452;SDS011;61687;56.232;43.854;2022-09-09T06:51:27;6.90;;;2.60;;
73452;SDS011;61687;56.232;43.854;2022-09-09T06:53:58;4.07;;;2.25;;
73452;SDS011;61687;56.232;43.854;2022-09-09T06:56:27;4.35;;;2.65;;
73452;SDS011;61687;56.232;43.854;2022-09-09T06:58:57;3.57;;;1.87;;
73452;SDS011;61687;56.232;43.854;2022-09-09T07:01:29;7.22;;;1.92;;
73452;SDS011;61687;56.232;43.854;2022-09-09T07:04:00;4.55;;;2.03;;
73452;SDS011;61687;56.232;43.854;2022-09-09T07:06:31;4.10;;;1.90;;
73452;SDS011;61687;56.232;43.854;2022-09-09T07:09:01;3.38;;;1.95;;
73452;SDS011;61687;56.232;43.854;2022-09-09T07:11:31;2.93;;;1.97;;
73452;SDS011;61687;56.232;43.854;2022-09-09T07:13:59;3.78;;;1.80;;
73452;SDS011;61687;56.232;43.854;2022-09-09T07:16:27;3.35;;;2.28;;
73452;SDS011;61687;56.232;43.854;2022-09-09T07:18:56;3.25;;;1.85;;
73452;SDS011;61687;56.232;43.854;2022-09-09T07:21:24;4.97;;;2.15;;
73452;SDS011;61687;56.232;43.854;2022-09-09T07:23:52;13.10;;;2.13;;
73452;SDS011;61687;56.232;43.854;2022-09-09T07:26:20;3.85;;;1.92;;
73452;SDS011;61687;56.232;43.854;2022-09-09T07:28:48;4.32;;;2.10;;
73452;SDS011;61687;56.232;43.854;2022-09-09T07:33:46;3.17;;;1.85;;
73452;SDS011;61687;56.232;43.854;2022-09-09T07:36:15;3.60;;;1.60;;
73452;SDS011;61687;56.232;43.854;2022-09-09T07:38:41;3.20;;;2.05;;
73452;SDS011;61687;56.232;43.854;2022-09-09T07:41:15;6.38;;;2.00;;
73452;SDS011;61687;56.232;43.854;2022-09-09T07:43:46;5.22;;;1.80;;
73452;SDS011;61687;56.232;43.854;2022-09-09T07:46:14;3.83;;;1.98;;
73452;SDS011;61687;56.232;43.854;2022-09-09T07:48:46;3.60;;;2.13;;
73452;SDS011;61687;56.232;43.854;2022-09-09T07:51:22;3.10;;;2.10;;
73452;SDS011;61687;56.232;43.854;2022-09-09T07:53:52;4.15;;;2.20;;
73452;SDS011;61687;56.232;43.854;2022-09-09T07:56:19;4.00;;;2.15;;
73452;SDS011;61687;56.232;43.854;2022-09-09T07:58:49;3.53;;;2.30;;
73452;SDS011;61687;56.232;43.854;2022-09-09T08:01:17;3.20;;;1.53;;
73452;SDS011;61687;56.232;43.854;2022-09-09T08:03:45;4.10;;;2.03;;
73452;SDS011;61687;56.232;43.854;2022-09-09T08:06:12;3.83;;;1.70;;
73452;SDS011;61687;56.232;43.854;2022-09-09T08:08:39;3.55;;;1.92;;
73452;SDS011;61687;56.232;43.854;2022-09-09T08:11:09;4.05;;;1.92;;
73452;SDS011;61687;56.232;43.854;2022-09-09T08:13:37;3.40;;;2.10;;
73452;SDS011;61687;56.232;43.854;2022-09-09T08:16:09;4.43;;;1.70;;
73452;SDS011;61687;56.232;43.854;2022-09-09T08:18:35;3.63;;;2.10;;
73452;SDS011;61687;56.232;43.854;2022-09-09T08:21:10;5.30;;;2.30;;
73452;SDS011;61687;56.232;43.854;2022-09-09T08:23:39;3.30;;;2.20;;
73452;SDS011;61687;56.232;43.854;2022-09-09T08:26:17;3.27;;;2.00;;
73452;SDS011;61687;56.232;43.854;2022-09-09T08:28:49;4.32;;;1.90;;
73452;SDS011;61687;56.232;43.854;2022-09-09T08:33:48;3.17;;;1.95;;
73452;SDS011;61687;56.232;43.854;2022-09-09T08:36:16;6.28;;;2.33;;
73452;SDS011;61687;56.232;43.854;2022-09-09T08:38:43;3.17;;;2.20;;
73452;SDS011;61687;56.232;43.854;2022-09-09T08:44:02;4.72;;;2.30;;
73452;SDS011;61687;56.232;43.854;2022-09-09T08:46:33;3.70;;;2.20;;
73452;SDS011;61687;56.232;43.854;2022-09-09T08:49:24;3.30;;;1.95;;
73452;SDS011;61687;56.232;43.854;2022-09-09T08:52:04;3.43;;;2.07;;
73452;SDS011;61687;56.232;43.854;2022-09-09T08:54:44;6.57;;;2.22;;
73452;SDS011;61687;56.232;43.854;2022-09-09T08:57:14;5.30;;;2.13;;
73452;SDS011;61687;56.232;43.854;2022-09-09T08:59:48;3.25;;;1.55;;
73452;SDS011;61687;56.232;43.854;2022-09-09T09:02:34;3.70;;;2.13;;
73452;SDS011;61687;56.232;43.854;2022-09-09T09:10:49;3.08;;;2.25;;
73452;SDS011;61687;56.232;43.854;2022-09-09T09:13:26;3.30;;;1.58;;
73452;SDS011;61687;56.232;43.854;2022-09-09T09:16:25;3.40;;;2.03;;
73452;SDS011;61687;56.232;43.854;2022-09-09T09:18:52;5.43;;;2.10;;
73452;SDS011;61687;56.232;43.854;2022-09-09T09:21:37;4.60;;;1.48;;
73452;SDS011;61687;56.232;43.854;2022-09-09T09:24:13;3.60;;;1.73;;
73452;SDS011;61687;56.232;43.854;2022-09-09T09:26:45;2.85;;;1.58;;
73452;SDS011;61687;56.232;43.854;2022-09-09T09:29:13;4.90;;;2.30;;
73452;SDS011;61687;56.232;43.854;2022-09-09T09:31:49;2.80;;;1.73;;
73452;SDS011;61687;56.232;43.854;2022-09-09T09:34:21;6.85;;;2.20;;
73452;SDS011;61687;56.232;43.854;2022-09-09T09:36:58;4.05;;;1.67;;
73452;SDS011;61687;56.232;43.854;2022-09-09T09:39:32;6.97;;;1.83;;
73452;SDS011;61687;56.232;43.854;2022-09-09T09:42:11;3.97;;;2.13;;
73452;SDS011;61687;56.232;43.854;2022-09-09T09:44:43;3.57;;;2.10;;
73452;SDS011;61687;56.232;43.854;2022-09-09T09:47:19;2.55;;;1.65;;
73452;SDS011;61687;56.232;43.854;2022-09-09T09:49:58;3.58;;;2.22;;
73452;SDS011;61687;56.232;43.854;2022-09-09T09:52:31;3.78;;;2.30;;
73452;SDS011;61687;56.232;43.854;2022-09-09T09:55:02;3.22;;;2.05;;
73452;SDS011;61687;56.232;43.854;2022-09-09T09:57:32;3.47;;;1.70;;
73452;SDS011;61687;56.232;43.854;2022-09-09T10:00:14;30.60;;;3.08;;
73452;SDS011;61687;56.232;43.854;2022-09-09T10:02:41;4.55;;;2.10;;
73452;SDS011;61687;56.232;43.854;2022-09-09T10:05:16;3.25;;;1.60;;
73452;SDS011;61687;56.232;43.854;2022-09-09T10:08:03;4.15;;;2.15;;
73452;SDS011;61687;56.232;43.854;2022-09-09T10:11:15;5.00;;;1.70;;
73452;SDS011;61687;56.232;43.854;2022-09-09T10:13:38;5.07;;;2.05;;
73452;SDS011;61687;56.232;43.854;2022-09-09T10:19:00;3.25;;;1.60;;
73452;SDS011;61687;56.232;43.854;2022-09-09T10:48:51;3.40;;;2.00;;
73452;SDS011;61687;56.232;43.854;2022-09-09T10:54:46;5.22;;;2.40;;
73452;SDS011;61687;56.232;43.854;2022-09-09T11:02:43;5.53;;;2.25;;
73452;SDS011;61687;56.232;43.854;2022-09-09T11:13:08;5.40;;;1.60;;
73452;SDS011;61687;56.232;43.854;2022-09-09T11:19:13;4.33;;;1.80;;
73452;SDS011;61687;56.232;43.854;2022-09-09T11:21:42;4.40;;;1.70;;
73452;SDS011;61687;56.232;43.854;2022-09-09T11:27:37;4.47;;;2.45;;
73452;SDS011;61687;56.232;43.854;2022-09-09T11:35:26;5.63;;;1.42;;
73452;SDS011;61687;56.232;43.854;2022-09-09T11:40:30;3.38;;;1.75;;
73452;SDS011;61687;56.232;43.854;2022-09-09T11:43:02;3.50;;;1.60;;
73452;SDS011;61687;56.232;43.854;2022-09-09T11:45:38;2.73;;;1.67;;
73452;SDS011;61687;56.232;43.854;2022-09-09T11:48:23;4.68;;;1.42;;
73452;SDS011;61687;56.232;43.854;2022-09-09T11:50:59;3.33;;;1.65;;
73452;SDS011;61687;56.232;43.854;2022-09-09T11:53:49;7.43;;;1.92;;
73452;SDS011;61687;56.232;43.854;2022-09-09T11:56:31;4.25;;;1.58;;
73452;SDS011;61687;56.232;43.854;2022-09-09T11:59:21;3.43;;;2.27;;
73452;SDS011;61687;56.232;43.854;2022-09-09T12:01:54;4.00;;;1.85;;
73452;SDS011;61687;56.232;43.854;2022-09-09T12:10:00;4.40;;;2.17;;
73452;SDS011;61687;56.232;43.854;2022-09-09T12:12:31;4.63;;;2.20;;
73452;SDS011;61687;56.232;43.854;2022-09-09T12:15:16;4.03;;;2.50;;
73452;SDS011;61687;56.232;43.854;2022-09-09T12:20:16;3.55;;;1.75;;
73452;SDS011;61687;56.232;43.854;2022-09-09T12:25:43;3.95;;;2.00;;
73452;SDS011;61687;56.232;43.854;2022-09-09T12:31:09;4.30;;;2.00;;
73452;SDS011;61687;56.232;43.854;2022-09-09T12:33:45;4.03;;;2.15;;
73452;SDS011;61687;56.232;43.854;2022-09-09T12:36:17;6.47;;;2.03;;
73452;SDS011;61687;56.232;43.854;2022-09-09T12:38:46;2.72;;;1.63;;
73452;SDS011;61687;56.232;43.854;2022-09-09T12:41:25;4.85;;;2.15;;
73452;SDS011;61687;56.232;43.854;2022-09-09T12:44:13;2.92;;;1.60;;
73452;SDS011;61687;56.232;43.854;2022-09-09T12:46:42;4.50;;;1.85;;
73452;SDS011;61687;56.232;43.854;2022-09-09T12:51:56;3.78;;;2.13;;
73452;SDS011;61687;56.232;43.854;2022-09-09T12:54:22;3.40;;;2.25;;
73452;SDS011;61687;56.232;43.854;2022-09-09T12:56:49;3.63;;;1.80;;
73452;SDS011;61687;56.232;43.854;2022-09-09T12:59:35;3.20;;;2.17;;
73452;SDS011;61687;56.232;43.854;2022-09-09T13:02:11;4.13;;;2.30;;
73452;SDS011;61687;56.232;43.854;2022-09-09T13:04:47;3.88;;;2.22;;
73452;SDS011;61687;56.232;43.854;2022-09-09T13:07:16;4.40;;;2.65;;
73452;SDS011;61687;56.232;43.854;2022-09-09T13:09:46;4.40;;;3.42;;
73452;SDS011;61687;56.232;43.854;2022-09-09T13:12:15;5.07;;;3.13;;
73452;SDS011;61687;56.232;43.854;2022-09-09T13:14:44;5.60;;;3.17;;
73452;SDS011;61687;56.232;43.854;2022-09-09T13:17:21;3.63;;;2.40;;
73452;SDS011;61687;56.232;43.854;2022-09-09T13:19:49;5.53;;;4.32;;
73452;SDS011;61687;56.232;43.854;2022-09-09T13:22:39;4.43;;;3.85;;
73452;SDS011;61687;56.232;43.854;2022-09-09T13:27:38;6.40;;;3.13;;
73452;SDS011;61687;56.232;43.854;2022-09-09T13:35:29;5.93;;;3.05;;
73452;SDS011;61687;56.232;43.854;2022-09-09T13:37:56;8.70;;;3.00;;
73452;SDS011;61687;56.232;43.854;2022-09-09T13:40:23;6.00;;;2.17;;
73452;SDS011;61687;56.232;43.854;2022-09-09T13:42:55;3.42;;;1.80;;
73452;SDS011;61687;56.232;43.854;2022-09-09T13:45:22;5.68;;;2.30;;
73452;SDS011;61687;56.232;43.854;2022-09-09T13:47:52;3.20;;;2.22;;
73452;SDS011;61687;56.232;43.854;2022-09-09T13:50:25;3.83;;;2.30;;
73452;SDS011;61687;56.232;43.854;2022-09-09T13:52:56;5.23;;;2.93;;
73452;SDS011;61687;56.232;43.854;2022-09-09T13:55:24;4.30;;;2.05;;
73452;SDS011;61687;56.232;43.854;2022-09-09T13:57:53;3.75;;;2.28;;
73452;SDS011;61687;56.232;43.854;2022-09-09T14:00:21;6.28;;;2.50;;
73452;SDS011;61687;56.232;43.854;2022-09-09T14:02:48;6.57;;;2.67;;
73452;SDS011;61687;56.232;43.854;2022-09-09T14:05:15;4.90;;;2.60;;
73452;SDS011;61687;56.232;43.854;2022-09-09T14:07:41;5.20;;;2.22;;
73452;SDS011;61687;56.232;43.854;2022-09-09T14:10:09;5.38;;;2.42;;
73452;SDS011;61687;56.232;43.854;2022-09-09T14:12:36;6.13;;;2.50;;
73452;SDS011;61687;56.232;43.854;2022-09-09T14:15:02;6.10;;;2.95;;
73452;SDS011;61687;56.232;43.854;2022-09-09T14:17:29;5.40;;;3.43;;
73452;SDS011;61687;56.232;43.854;2022-09-09T14:19:55;4.75;;;2.90;;
73452;SDS011;61687;56.232;43.854;2022-09-09T14:22:21;5.43;;;2.80;;
73452;SDS011;61687;56.232;43.854;2022-09-09T14:24:48;12.85;;;3.53;;
73452;SDS011;61687;56.232;43.854;2022-09-09T14:27:14;7.60;;;3.50;;
73452;SDS011;61687;56.232;43.854;2022-09-09T14:29:41;5.33;;;3.30;;
73452;SDS011;61687;56.232;43.854;2022-09-09T14:32:08;6.70;;;3.30;;
73452;SDS011;61687;56.232;43.854;2022-09-09T14:34:34;6.95;;;3.58;;
73452;SDS011;61687;56.232;43.854;2022-09-09T14:37:00;5.67;;;3.47;;
73452;SDS011;61687;56.232;43.854;2022-09-09T14:39:26;5.93;;;3.35;;
73452;SDS011;61687;56.232;43.854;2022-09-09T14:41:52;5.72;;;2.97;;
73452;SDS011;61687;56.232;43.854;2022-09-09T14:44:18;6.40;;;3.83;;
73452;SDS011;61687;56.232;43.854;2022-09-09T14:46:44;7.93;;;4.40;;
73452;SDS011;61687;56.232;43.854;2022-09-09T14:49:10;10.00;;;4.05;;
73452;SDS011;61687;56.232;43.854;2022-09-09T14:51:36;7.50;;;3.70;;
73452;SDS011;61687;56.232;43.854;2022-09-09T14:54:02;6.20;;;3.88;;
73452;SDS011;61687;56.232;43.854;2022-09-09T14:56:30;6.77;;;3.73;;
73452;SDS011;61687;56.232;43.854;2022-09-09T14:58:59;6.80;;;3.80;;
73452;SDS011;61687;56.232;43.854;2022-09-09T15:01:26;6.47;;;4.13;;
73452;SDS011;61687;56.232;43.854;2022-09-09T15:03:53;5.38;;;3.42;;
73452;SDS011;61687;56.232;43.854;2022-09-09T15:06:21;6.30;;;3.45;;
73452;SDS011;61687;56.232;43.854;2022-09-09T15:08:49;7.07;;;3.63;;
73452;SDS011;61687;56.232;43.854;2022-09-09T15:11:16;11.30;;;3.60;;
73452;SDS011;61687;56.232;43.854;2022-09-09T15:13:43;7.70;;;3.67;;
73452;SDS011;61687;56.232;43.854;2022-09-09T15:18:42;7.57;;;4.15;;
73452;SDS011;61687;56.232;43.854;2022-09-09T15:21:10;7.93;;;4.20;;
73452;SDS011;61687;56.232;43.854;2022-09-09T15:23:37;7.75;;;4.25;;
73452;SDS011;61687;56.232;43.854;2022-09-09T15:26:04;7.88;;;3.67;;
73452;SDS011;61687;56.232;43.854;2022-09-09T15:28:31;10.23;;;4.32;;
73452;SDS011;61687;56.232;43.854;2022-09-09T15:31:06;8.80;;;4.50;;
73452;SDS011;61687;56.232;43.854;2022-09-09T15:33:35;9.53;;;3.93;;
73452;SDS011;61687;56.232;43.854;2022-09-09T15:36:15;8.80;;;4.45;;
73452;SDS011;61687;56.232;43.854;2022-09-09T15:38:48;12.68;;;4.63;;
73452;SDS011;61687;56.232;43.854;2022-09-09T15:41:15;10.25;;;4.60;;
73452;SDS011;61687;56.232;43.854;2022-09-09T15:43:43;8.85;;;4.15;;
73452;SDS011;61687;56.232;43.854;2022-09-09T15:48:43;9.95;;;4.55;;
73452;SDS011;61687;56.232;43.854;2022-09-09T15:51:10;8.80;;;4.45;;
73452;SDS011;61687;56.232;43.854;2022-09-09T15:53:37;11.43;;;5.18;;
73452;SDS011;61687;56.232;43.854;2022-09-09T15:56:06;6.95;;;4.32;;
73452;SDS011;61687;56.232;43.854;2022-09-09T15:58:34;13.80;;;5.00;;
73452;SDS011;61687;56.232;43.854;2022-09-09T16:01:08;8.55;;;4.30;;
73452;SDS011;61687;56.232;43.854;2022-09-09T16:03:37;10.52;;;4.40;;
73452;SDS011;61687;56.232;43.854;2022-09-09T16:06:04;11.90;;;5.22;;
73452;SDS011;61687;56.232;43.854;2022-09-09T16:08:32;10.98;;;5.80;;
73452;SDS011;61687;56.232;43.854;2022-09-09T16:11:08;11.77;;;5.40;;
73452;SDS011;61687;56.232;43.854;2022-09-09T16:13:40;13.38;;;5.72;;
73452;SDS011;61687;56.232;43.854;2022-09-09T16:16:07;12.88;;;6.80;;
73452;SDS011;61687;56.232;43.854;2022-09-09T16:18:38;14.75;;;7.50;;
73452;SDS011;61687;56.232;43.854;2022-09-09T16:21:06;15.20;;;7.18;;
73452;SDS011;61687;56.232;43.854;2022-09-09T16:23:33;13.30;;;7.50;;
73452;SDS011;61687;56.232;43.854;2022-09-09T16:26:00;13.18;;;6.90;;
73452;SDS011;61687;56.232;43.854;2022-09-09T16:28:27;13.93;;;7.95;;
73452;SDS011;61687;56.232;43.854;2022-09-09T16:30:54;11.20;;;6.80;;
73452;SDS011;61687;56.232;43.854;2022-09-09T16:33:20;14.07;;;7.55;;
73452;SDS011;61687;56.232;43.854;2022-09-09T16:35:47;15.23;;;6.90;;
73452;SDS011;61687;56.232;43.854;2022-09-09T16:38:14;12.82;;;7.00;;
73452;SDS011;61687;56.232;43.854;2022-09-09T16:40:40;12.77;;;6.50;;
73452;SDS011;61687;56.232;43.854;2022-09-09T16:43:07;14.70;;;6.55;;
73452;SDS011;61687;56.232;43.854;2022-09-09T16:45:40;14.03;;;7.00;;
73452;SDS011;61687;56.232;43.854;2022-09-09T16:48:11;13.35;;;6.63;;
73452;SDS011;61687;56.232;43.854;2022-09-09T16:50:37;13.98;;;7.10;;
73452;SDS011;61687;56.232;43.854;2022-09-09T16:53:04;15.95;;;7.75;;
73452;SDS011;61687;56.232;43.854;2022-09-09T16:55:38;17.42;;;8.43;;
73452;SDS011;61687;56.232;43.854;2022-09-09T16:58:05;22.17;;;12.33;;
73452;SDS011;61687;56.232;43.854;2022-09-09T17:00:32;14.63;;;6.82;;
73452;SDS011;61687;56.232;43.854;2022-09-09T17:02:59;15.32;;;8.10;;
73452;SDS011;61687;56.232;43.854;2022-09-09T17:05:25;13.55;;;6.57;;
73452;SDS011;61687;56.232;43.854;2022-09-09T17:07:51;14.87;;;6.53;;
73452;SDS011;61687;56.232;43.854;2022-09-09T17:10:17;14.27;;;6.07;;
73452;SDS011;61687;56.232;43.854;2022-09-09T17:12:43;12.13;;;6.47;;
73452;SDS011;61687;56.232;43.854;2022-09-09T17:15:08;11.30;;;5.95;;
73452;SDS011;61687;56.232;43.854;2022-09-09T17:17:35;15.40;;;5.90;;
73452;SDS011;61687;56.232;43.854;2022-09-09T17:20:01;13.68;;;6.78;;
73452;SDS011;61687;56.232;43.854;2022-09-09T17:22:28;14.40;;;6.80;;
73452;SDS011;61687;56.232;43.854;2022-09-09T17:24:54;16.43;;;7.70;;